createdAt,value
2018-08-11T00:00:22.796Z,534.1
2018-08-11T00:01:24.735Z,534.3
2018-08-11T00:02:26.927Z,534.2
2018-08-11T00:03:29.383Z,534.2
2018-08-11T00:04:31.290Z,534.4
2018-08-11T00:05:33.734Z,534.7
2018-08-11T00:06:36.192Z,534.5
2018-08-11T00:07:38.640Z,534.7
2018-08-11T00:08:40.813Z,534.5
2018-08-11T00:09:42.690Z,534.7
2018-08-11T00:10:44.566Z,534.7
2018-08-11T00:11:46.451Z,534.8
2018-08-11T00:12:48.628Z,534.7
2018-08-11T00:13:50.795Z,534.4
2018-08-11T00:14:52.978Z,534.8
2018-08-11T00:15:54.897Z,534.5
2018-08-11T00:16:57.077Z,534.8
2018-08-11T00:17:59.515Z,534.2
2018-08-11T00:19:01.390Z,534.5
2018-08-11T00:20:03.285Z,534.6
2018-08-11T00:21:05.731Z,534.8
2018-08-11T00:22:08.183Z,534.6
2018-08-11T00:23:10.353Z,534.5
2018-08-11T00:24:12.521Z,534.6
2018-08-11T00:25:14.676Z,534.8
2018-08-11T00:26:17.119Z,535.1
2018-08-11T00:27:19.277Z,534.8
2018-08-11T00:28:21.735Z,534.7
2018-08-11T00:29:24.177Z,535.1
2018-08-11T00:30:26.624Z,535.1
2018-08-11T00:31:28.807Z,534.9
2018-08-11T00:32:30.695Z,534.9
2018-08-11T00:33:32.849Z,534.8
2018-08-11T00:34:35.305Z,535.2
2018-08-11T00:35:37.747Z,534.5
2018-08-11T00:36:40.198Z,534.6
2018-08-11T00:37:42.652Z,534.5
2018-08-11T00:38:44.542Z,534.5
2018-08-11T00:39:46.435Z,534.8
2018-08-11T00:40:48.897Z,534.9
2018-08-11T00:41:51.356Z,535.6
2018-08-11T00:42:53.285Z,535.9
2018-08-11T00:43:55.172Z,535.2
2018-08-11T00:44:57.070Z,535.4
2018-08-11T00:45:58.972Z,535.4
2018-08-11T00:47:01.431Z,535.1
2018-08-11T00:48:03.598Z,535.2
2018-08-11T00:49:05.505Z,535.8
2018-08-11T00:50:07.951Z,535.8
2018-08-11T00:51:10.403Z,535.3
2018-08-11T00:52:12.871Z,535.4
2018-08-11T00:53:15.046Z,535.7
2018-08-11T00:54:17.488Z,535.6
2018-08-11T00:55:19.948Z,535.7
2018-08-11T00:56:22.394Z,536.1
2018-08-11T00:57:24.841Z,535.8
2018-08-11T00:58:26.730Z,536
2018-08-11T00:59:28.897Z,536.3
2018-08-11T01:00:31.073Z,536.3
2018-08-11T01:01:33.256Z,536
2018-08-11T01:02:35.696Z,535.9
2018-08-11T01:03:37.907Z,536.4
2018-08-11T01:04:40.097Z,536.3
2018-08-11T01:05:42.004Z,536.3
2018-08-11T01:06:44.450Z,536.6
2018-08-11T01:07:46.358Z,536.4
2018-08-11T01:08:48.517Z,536.5
2018-08-11T01:09:50.965Z,536.4
2018-08-11T01:10:53.689Z,536.1
2018-08-11T01:11:55.862Z,536.3
2018-08-11T01:12:58.050Z,536.7
2018-08-11T01:14:00.496Z,536.7
2018-08-11T01:15:02.933Z,536.8
2018-08-11T01:16:05.106Z,536.7
2018-08-11T01:17:07.280Z,536.5
2018-08-11T01:18:09.453Z,537.1
2018-08-11T01:19:11.642Z,536.7
2018-08-11T01:20:13.824Z,536.8
2018-08-11T01:21:16.270Z,536.6
2018-08-11T01:22:18.177Z,536.7
2018-08-11T01:23:20.058Z,536.5
2018-08-11T01:24:22.512Z,536.9
2018-08-11T01:25:24.694Z,536.7
2018-08-11T01:26:27.147Z,537.1
2018-08-11T01:27:29.617Z,537
2018-08-11T01:28:31.261Z,537.2
2018-08-11T01:29:33.725Z,536.8
2018-08-11T01:30:35.898Z,537
2018-08-11T01:31:38.072Z,537.2
2018-08-11T01:32:39.951Z,537.3
2018-08-11T01:33:42.403Z,537.3
2018-08-11T01:34:44.590Z,537.1
2018-08-11T01:35:47.037Z,537
2018-08-11T01:36:49.230Z,537.1
2018-08-11T01:37:51.677Z,537.2
2018-08-11T01:38:53.876Z,536.9
2018-08-11T01:39:56.070Z,537.2
2018-08-11T01:40:58.515Z,537.3
2018-08-11T01:42:00.411Z,537.4
2018-08-11T01:43:02.576Z,536.8
2018-08-11T01:44:04.588Z,537
2018-08-11T01:45:07.040Z,537.2
2018-08-11T01:46:09.243Z,537.4
2018-08-11T01:47:11.425Z,537
2018-08-11T01:48:13.348Z,537.3
2018-08-11T01:49:15.517Z,537.6
2018-08-11T01:50:17.409Z,537.1
2018-08-11T01:51:19.867Z,537.4
2018-08-11T01:52:22.044Z,537.7
2018-08-11T01:53:24.210Z,537.4
2018-08-11T01:54:26.085Z,537.8
2018-08-11T01:55:28.258Z,537.7
2018-08-11T01:56:30.715Z,537.7
2018-08-11T01:57:32.865Z,538.1
2018-08-11T01:58:34.740Z,538.5
2018-08-11T01:59:36.918Z,538
2018-08-11T02:00:39.085Z,538.1
2018-08-11T02:01:41.527Z,538.2
2018-08-11T02:02:43.699Z,538.1
2018-08-11T02:03:45.853Z,538.5
2018-08-11T02:04:48.047Z,538.2
2018-08-11T02:05:49.959Z,538.1
2018-08-11T02:06:52.159Z,538.2
2018-08-11T02:07:54.346Z,538.3
2018-08-11T02:08:56.512Z,538
2018-08-11T02:09:58.692Z,538.2
2018-08-11T02:11:00.868Z,538.4
2018-08-11T02:12:03.019Z,538.3
2018-08-11T02:13:04.944Z,538
2018-08-11T02:14:06.857Z,538.6
2018-08-11T02:15:09.304Z,538.7
2018-08-11T02:16:11.487Z,539
2018-08-11T02:17:13.670Z,538.8
2018-08-11T02:18:15.586Z,539.3
2018-08-11T02:19:18.044Z,539
2018-08-11T02:20:20.483Z,539.3
2018-08-11T02:21:22.647Z,539.8
2018-08-11T02:22:25.101Z,539.6
2018-08-11T02:23:27.541Z,539.9
2018-08-11T02:24:29.453Z,540
2018-08-11T02:25:31.641Z,540
2018-08-11T02:26:34.077Z,539.9
2018-08-11T02:27:36.265Z,540.1
2018-08-11T02:28:38.415Z,540.2
2018-08-11T02:29:40.856Z,539.9
2018-08-11T02:30:43.033Z,540
2018-08-11T02:31:45.213Z,540.1
2018-08-11T02:32:47.092Z,539.8
2018-08-11T02:33:49.287Z,539.9
2018-08-11T02:34:51.716Z,539.9
2018-08-11T02:35:54.169Z,539.3
2018-08-11T02:36:56.052Z,539.9
2018-08-11T02:37:58.237Z,539.9
2018-08-11T02:39:00.693Z,539.9
2018-08-11T02:40:02.865Z,540.2
2018-08-11T02:41:04.770Z,540.3
2018-08-11T02:42:07.216Z,540.2
2018-08-11T02:43:09.390Z,540.3
2018-08-11T02:44:11.838Z,540.4
2018-08-11T02:45:14.052Z,540.4
2018-08-11T02:46:16.489Z,540.2
2018-08-11T02:47:18.933Z,540.5
2018-08-11T02:48:21.096Z,540.5
2018-08-11T02:49:23.558Z,540.6
2018-08-11T02:50:25.481Z,540.6
2018-08-11T02:51:27.646Z,540.8
2018-08-11T02:52:30.088Z,540.9
2018-08-11T02:53:32.535Z,540.8
2018-08-11T02:54:34.677Z,540.9
2018-08-11T02:55:37.129Z,541
2018-08-11T02:56:39.573Z,541.4
2018-08-11T02:57:41.758Z,541.5
2018-08-11T02:58:43.909Z,541.3
2018-08-11T02:59:46.077Z,541.3
2018-08-11T03:00:48.000Z,541.3
2018-08-11T03:01:50.446Z,541.2
2018-08-11T03:02:52.622Z,541.1
2018-08-11T03:03:54.806Z,541
2018-08-11T03:04:57.267Z,541
2018-08-11T03:05:59.720Z,541
2018-08-11T03:07:01.640Z,540.8
2018-08-11T03:08:03.814Z,541
2018-08-11T03:09:06.261Z,540.9
2018-08-11T03:10:08.706Z,541.1
2018-08-11T03:11:10.886Z,540.9
2018-08-11T03:12:13.332Z,540.9
2018-08-11T03:13:15.500Z,540.8
2018-08-11T03:14:17.975Z,541.1
2018-08-11T03:15:20.150Z,540.8
2018-08-11T03:16:22.331Z,541.1
2018-08-11T03:17:23.962Z,540.8
2018-08-11T03:18:26.153Z,540.9
2018-08-11T03:19:28.307Z,540.8
2018-08-11T03:20:30.482Z,540.9
2018-08-11T03:21:32.936Z,540.8
2018-08-11T03:22:35.376Z,541.1
2018-08-11T03:23:37.557Z,540.9
2018-08-11T03:24:39.439Z,540.8
2018-08-11T03:25:41.591Z,540.6
2018-08-11T03:26:43.508Z,540.6
2018-08-11T03:27:45.372Z,540.4
2018-08-11T03:28:47.246Z,540.5
2018-08-11T03:29:49.421Z,540.5
2018-08-11T03:30:51.861Z,540.5
2018-08-11T03:31:54.034Z,540.5
2018-08-11T03:32:56.481Z,540.3
2018-08-11T03:33:58.665Z,540.5
2018-08-11T03:35:00.826Z,540.4
2018-08-11T03:36:03.002Z,540.6
2018-08-11T03:37:05.155Z,540.5
2018-08-11T03:38:07.613Z,540.5
2018-08-11T03:39:09.829Z,540.5
2018-08-11T03:40:12.002Z,540.5
2018-08-11T03:41:14.157Z,540.2
2018-08-11T03:42:16.342Z,540.1
2018-08-11T03:43:18.244Z,540.2
2018-08-11T03:44:20.129Z,540.5
2018-08-11T03:45:22.564Z,540.3
2018-08-11T03:46:24.454Z,540.3
2018-08-11T03:47:26.375Z,540.1
2018-08-11T03:48:28.832Z,539.4
2018-08-11T03:49:30.744Z,539.7
2018-08-11T03:50:33.179Z,539.8
2018-08-11T03:51:35.628Z,539.7
2018-08-11T03:52:38.556Z,539.7
2018-08-11T03:53:40.998Z,539.4
2018-08-11T03:54:43.174Z,539.1
2018-08-11T03:55:45.627Z,538.8
2018-08-11T03:56:48.071Z,539.1
2018-08-11T03:57:50.517Z,539.1
2018-08-11T03:58:52.957Z,538.7
2018-08-11T03:59:55.142Z,538.5
2018-08-11T04:00:57.326Z,538.7
2018-08-11T04:01:59.765Z,538.6
2018-08-11T04:03:01.660Z,538.1
2018-08-11T04:04:03.553Z,538.8
2018-08-11T04:05:06.028Z,538.5
2018-08-11T04:06:08.479Z,538.8
2018-08-11T04:07:10.662Z,538.6
2018-08-11T04:08:13.122Z,538.8
2018-08-11T04:09:15.568Z,538.4
2018-08-11T04:10:17.727Z,538.4
2018-08-11T04:11:20.169Z,538.3
2018-08-11T04:12:22.337Z,538.5
2018-08-11T04:13:24.782Z,538.1
2018-08-11T04:14:25.890Z,537.9
2018-08-11T04:15:28.337Z,537.8
2018-08-11T04:16:30.534Z,538.4
2018-08-11T04:17:32.518Z,538.3
2018-08-11T04:18:34.416Z,538.2
2018-08-11T04:19:36.868Z,538
2018-08-11T04:20:38.779Z,538.3
2018-08-11T04:21:40.964Z,538.3
2018-08-11T04:22:43.135Z,538.3
2018-08-11T04:23:45.588Z,538.3
2018-08-11T04:24:48.041Z,538.1
2018-08-11T04:25:50.481Z,538.2
2018-08-11T04:26:52.930Z,538.1
2018-08-11T04:27:55.104Z,538.2
2018-08-11T04:28:57.551Z,538.3
2018-08-11T04:29:59.732Z,538.4
2018-08-11T04:31:01.907Z,538.4
2018-08-11T04:32:04.362Z,538.1
2018-08-11T04:33:06.813Z,538.4
2018-08-11T04:34:09.260Z,538.6
2018-08-11T04:35:11.702Z,538.2
2018-08-11T04:36:13.606Z,538.1
2018-08-11T04:37:16.047Z,537.8
2018-08-11T04:38:18.494Z,537.6
2018-08-11T04:39:20.668Z,538.1
2018-08-11T04:40:23.105Z,537.9
2018-08-11T04:41:25.281Z,538
2018-08-11T04:42:27.455Z,537.6
2018-08-11T04:43:29.602Z,537.8
2018-08-11T04:44:31.498Z,537.8
2018-08-11T04:45:33.666Z,537.4
2018-08-11T04:46:35.558Z,537
2018-08-11T04:47:37.731Z,537.1
2018-08-11T04:48:40.173Z,537.3
2018-08-11T04:49:42.625Z,536.9
2018-08-11T04:50:44.815Z,537.2
2018-08-11T04:51:46.984Z,537.2
2018-08-11T04:52:49.439Z,537.4
2018-08-11T04:53:51.628Z,537.3
2018-08-11T04:54:54.067Z,537.4
2018-08-11T04:55:56.529Z,537.4
2018-08-11T04:56:58.978Z,536.7
2018-08-11T04:58:00.881Z,537.2
2018-08-11T04:59:03.327Z,537
2018-08-11T05:00:05.493Z,537.3
2018-08-11T05:01:07.672Z,537.3
2018-08-11T05:02:10.168Z,537.1
2018-08-11T05:03:12.362Z,537
2018-08-11T05:04:14.537Z,537.3
2018-08-11T05:05:16.707Z,537.1
2018-08-11T05:06:18.887Z,537.3
2018-08-11T05:07:21.335Z,537.3
2018-08-11T05:08:23.787Z,537.2
2018-08-11T05:09:26.224Z,537.6
2018-08-11T05:10:28.681Z,537.6
2018-08-11T05:11:31.120Z,537.1
2018-08-11T05:12:33.570Z,536.8
2018-08-11T05:13:35.209Z,536.7
2018-08-11T05:14:37.674Z,537.2
2018-08-11T05:15:39.841Z,536.9
2018-08-11T05:16:42.287Z,536.9
2018-08-11T05:17:44.727Z,536.8
2018-08-11T05:18:46.910Z,536.6
2018-08-11T05:19:49.177Z,536.3
2018-08-11T05:20:51.657Z,536.4
2018-08-11T05:21:53.807Z,536.2
2018-08-11T05:22:56.252Z,536
2018-08-11T05:23:58.145Z,535.6
2018-08-11T05:25:00.041Z,535.6
2018-08-11T05:26:02.485Z,535.5
2018-08-11T05:27:04.936Z,535.7
2018-08-11T05:28:06.844Z,535.2
2018-08-11T05:29:09.296Z,535.5
2018-08-11T05:30:11.744Z,535.1
2018-08-11T05:31:13.635Z,534.9
2018-08-11T05:32:16.084Z,535.3
2018-08-11T05:33:18.717Z,534.8
2018-08-11T05:34:20.945Z,535.1
2018-08-11T05:35:23.396Z,534.6
2018-08-11T05:36:25.574Z,534.9
2018-08-11T05:37:27.733Z,534.7
2018-08-11T05:38:29.924Z,534.9
2018-08-11T05:39:32.108Z,534.6
2018-08-11T05:40:34.575Z,534.9
2018-08-11T05:41:36.680Z,534.4
2018-08-11T05:42:38.903Z,534.5
2018-08-11T05:43:41.339Z,534.5
2018-08-11T05:44:43.811Z,534.3
2018-08-11T05:45:45.985Z,534
2018-08-11T05:46:48.179Z,533.9
2018-08-11T05:47:50.085Z,534
2018-08-11T05:48:52.543Z,534.5
2018-08-11T05:49:54.987Z,534
2018-08-11T05:50:57.438Z,534.1
2018-08-11T05:51:59.608Z,533.6
2018-08-11T05:53:01.791Z,533.8
2018-08-11T05:54:04.260Z,533.5
2018-08-11T05:55:06.224Z,533.6
2018-08-11T05:56:08.720Z,533.7
2018-08-11T05:57:10.624Z,533.7
2018-08-11T05:58:12.537Z,533.2
2018-08-11T05:59:14.438Z,533.4
2018-08-11T06:00:16.619Z,533.1
2018-08-11T06:01:18.517Z,533.1
2018-08-11T06:02:20.970Z,533
2018-08-11T06:03:23.178Z,532.7
2018-08-11T06:04:25.361Z,532.9
2018-08-11T06:05:27.270Z,532.6
2018-08-11T06:06:29.180Z,532.5
2018-08-11T06:07:31.642Z,532.4
2018-08-11T06:08:33.779Z,532.5
2018-08-11T06:09:36.315Z,532.2
2018-08-11T06:10:38.957Z,532.4
2018-08-11T06:11:41.417Z,532.3
2018-08-11T06:12:43.589Z,532.2
2018-08-11T06:13:46.043Z,532.4
2018-08-11T06:14:48.492Z,532.4
2018-08-11T06:15:50.638Z,532.5
2018-08-11T06:16:53.082Z,532.1
2018-08-11T06:17:54.964Z,532.4
2018-08-11T06:18:56.854Z,532.4
2018-08-11T06:19:59.039Z,532.2
2018-08-11T06:21:01.313Z,532.6
2018-08-11T06:22:03.517Z,532.3
2018-08-11T06:23:05.686Z,532.3
2018-08-11T06:24:08.127Z,532.3
2018-08-11T06:25:10.595Z,532.4
2018-08-11T06:26:12.502Z,531.9
2018-08-11T06:27:14.655Z,532.3
2018-08-11T06:28:17.114Z,531.9
2018-08-11T06:29:19.563Z,532
2018-08-11T06:30:21.735Z,531.9
2018-08-11T06:31:24.443Z,531.4
2018-08-11T06:32:26.675Z,531.5
2018-08-11T06:33:29.114Z,531.4
2018-08-11T06:34:31.566Z,531.5
2018-08-11T06:35:33.441Z,531.6
2018-08-11T06:36:35.347Z,531.3
2018-08-11T06:37:37.530Z,531.1
2018-08-11T06:38:39.699Z,530.5
2018-08-11T06:39:42.146Z,530.3
2018-08-11T06:40:44.442Z,530.8
2018-08-11T06:41:46.404Z,530.5
2018-08-11T06:42:48.595Z,530.7
2018-08-11T06:43:50.506Z,530.5
2018-08-11T06:44:52.686Z,530.6
2018-08-11T06:45:55.139Z,531.1
2018-08-11T06:46:57.833Z,530.6
2018-08-11T06:47:59.943Z,530.8
2018-08-11T06:49:01.823Z,530.5
2018-08-11T06:50:04.000Z,530.8
2018-08-11T06:51:05.906Z,530.4
2018-08-11T06:52:08.350Z,530.8
2018-08-11T06:53:10.537Z,530.3
2018-08-11T06:54:12.997Z,530.8
2018-08-11T06:55:15.170Z,530.5
2018-08-11T06:56:17.612Z,530.9
2018-08-11T06:57:19.762Z,531.1
2018-08-11T06:58:21.380Z,530.9
2018-08-11T06:59:23.563Z,530.9
2018-08-11T07:00:26.021Z,530.7
2018-08-11T07:01:27.907Z,530.7
2018-08-11T07:02:29.550Z,530.2
2018-08-11T07:03:32.002Z,530.7
2018-08-11T07:04:34.461Z,530.6
2018-08-11T07:05:36.360Z,530.7
2018-08-11T07:06:38.505Z,530.1
2018-08-11T07:07:40.712Z,530.5
2018-08-11T07:08:42.878Z,530.5
2018-08-11T07:09:45.033Z,530
2018-08-11T07:10:47.226Z,530.1
2018-08-11T07:11:49.396Z,530.2
2018-08-11T07:12:51.865Z,530.1
2018-08-11T07:13:54.321Z,530.5
2018-08-11T07:14:56.775Z,530.5
2018-08-11T07:15:59.237Z,530.9
2018-08-11T07:17:01.697Z,530.4
2018-08-11T07:18:04.138Z,530.5
2018-08-11T07:19:06.599Z,530.4
2018-08-11T07:20:09.074Z,530.7
2018-08-11T07:21:11.619Z,530.6
2018-08-11T07:22:13.782Z,531
2018-08-11T07:23:15.697Z,531
2018-08-11T07:24:18.175Z,530.4
2018-08-11T07:25:20.341Z,530.3
2018-08-11T07:26:22.944Z,530.2
2018-08-11T07:27:25.086Z,529.9
2018-08-11T07:28:27.014Z,529.8
2018-08-11T07:29:29.206Z,529.3
2018-08-11T07:30:31.651Z,529.6
2018-08-11T07:31:33.807Z,529.6
2018-08-11T07:32:35.972Z,529.5
2018-08-11T07:33:38.429Z,529.7
2018-08-11T07:34:40.868Z,529.4
2018-08-11T07:35:43.355Z,529.5
2018-08-11T07:36:46.403Z,529.5
2018-08-11T07:37:49.672Z,529.4
2018-08-11T07:38:52.163Z,529.1
2018-08-11T07:39:54.476Z,529.4
2018-08-11T07:40:56.959Z,529.5
2018-08-11T07:41:58.845Z,529.1
2018-08-11T07:43:01.296Z,529.3
2018-08-11T07:44:03.745Z,528.9
2018-08-11T07:45:05.922Z,528.9
2018-08-11T07:46:08.097Z,529
2018-08-11T07:47:10.542Z,529
2018-08-11T07:48:13.007Z,528.7
2018-08-11T07:49:15.159Z,528.7
2018-08-11T07:50:17.264Z,529
2018-08-11T07:51:18.855Z,528.8
2018-08-11T07:52:21.024Z,529
2018-08-11T07:53:23.487Z,528.8
2018-08-11T07:54:25.917Z,529
2018-08-11T07:55:28.091Z,529
2018-08-11T07:56:29.985Z,528.9
2018-08-11T07:57:32.428Z,528.7
2018-08-11T07:58:34.868Z,528.9
2018-08-11T07:59:37.319Z,528.8
2018-08-11T08:00:39.769Z,528.9
2018-08-11T08:01:42.222Z,528.7
2018-08-11T08:02:44.667Z,528.2
2018-08-11T08:03:47.116Z,528.3
2018-08-11T08:04:49.297Z,528.5
2018-08-11T08:05:51.751Z,528
2018-08-11T08:06:54.219Z,528
2018-08-11T08:07:55.986Z,527.9
2018-08-11T08:08:57.818Z,528.1
2018-08-11T08:10:00.019Z,528.2
2018-08-11T08:11:02.466Z,528.1
2018-08-11T08:12:04.640Z,528.1
2018-08-11T08:13:06.818Z,528.3
2018-08-11T08:14:08.445Z,527.8
2018-08-11T08:15:10.895Z,527.9
2018-08-11T08:16:13.355Z,527.8
2018-08-11T08:17:15.804Z,527.8
2018-08-11T08:18:18.255Z,528
2018-08-11T08:19:20.181Z,528
2018-08-11T08:20:22.638Z,528.3
2018-08-11T08:21:24.551Z,527.9
2018-08-11T08:22:26.739Z,528.2
2018-08-11T08:23:29.197Z,528.1
2018-08-11T08:24:31.678Z,527.8
2018-08-11T08:25:33.843Z,527.3
2018-08-11T08:26:37.340Z,527.5
2018-08-11T08:27:39.104Z,527.3
2018-08-11T08:28:41.011Z,527.3
2018-08-11T08:29:42.911Z,527.2
2018-08-11T08:30:45.084Z,527
2018-08-11T08:31:46.988Z,527.2
2018-08-11T08:32:49.181Z,526.9
2018-08-11T08:33:51.623Z,527.4
2018-08-11T08:34:54.078Z,527
2018-08-11T08:35:55.961Z,527.1
2018-08-11T08:36:58.420Z,527
2018-08-11T08:38:00.600Z,526.7
2018-08-11T08:39:03.059Z,526.8
2018-08-11T08:40:04.961Z,526.8
2018-08-11T08:41:07.408Z,526.7
2018-08-11T08:42:09.322Z,527
2018-08-11T08:43:11.222Z,526.7
2018-08-11T08:44:13.674Z,526.9
2018-08-11T08:45:15.587Z,526.9
2018-08-11T08:46:18.040Z,526.7
2018-08-11T08:47:20.332Z,526.5
2018-08-11T08:48:22.784Z,527.1
2018-08-11T08:49:24.969Z,526.7
2018-08-11T08:50:26.850Z,526.9
2018-08-11T08:51:29.095Z,527
2018-08-11T08:52:31.292Z,526.6
2018-08-11T08:53:33.498Z,526.9
2018-08-11T08:54:35.960Z,526.7
2018-08-11T08:55:38.431Z,526.6
2018-08-11T08:56:40.879Z,526.9
2018-08-11T08:57:42.781Z,527.2
2018-08-11T08:58:45.254Z,527.4
2018-08-11T08:59:47.721Z,527.2
2018-08-11T09:00:50.168Z,526.9
2018-08-11T09:01:52.342Z,527.4
2018-08-11T09:02:54.514Z,527.5
2018-08-11T09:03:56.973Z,527.5
2018-08-11T09:04:59.753Z,527.5
2018-08-11T09:06:01.675Z,527.3
2018-08-11T09:07:03.558Z,527.5
2018-08-11T09:08:05.711Z,527.1
2018-08-11T09:09:07.899Z,527.1
2018-08-11T09:10:10.043Z,527.5
2018-08-11T09:11:12.222Z,527.4
2018-08-11T09:12:14.400Z,527.7
2018-08-11T09:13:16.857Z,528
2018-08-11T09:14:19.040Z,528
2018-08-11T09:15:20.940Z,527.5
2018-08-11T09:16:23.387Z,527.5
2018-08-11T09:17:25.838Z,527.8
2018-08-11T09:18:27.718Z,527.3
2018-08-11T09:19:30.464Z,526.9
2018-08-11T09:20:32.694Z,527.3
2018-08-11T09:21:34.589Z,527.5
2018-08-11T09:22:37.038Z,527.4
2018-08-11T09:23:39.485Z,527.4
2018-08-11T09:24:41.662Z,527
2018-08-11T09:25:43.813Z,527.2
2018-08-11T09:26:45.986Z,527.1
2018-08-11T09:27:48.195Z,527
2018-08-11T09:28:50.373Z,527.1
2018-08-11T09:29:52.841Z,527.1
2018-08-11T09:30:55.012Z,527.1
2018-08-11T09:31:57.167Z,527.5
2018-08-11T09:32:58.809Z,527.6
2018-08-11T09:34:01.245Z,527.6
2018-08-11T09:35:03.692Z,527.7
2018-08-11T09:36:05.869Z,527.4
2018-08-11T09:37:07.773Z,527.4
2018-08-11T09:38:10.222Z,526.7
2018-08-11T09:39:12.376Z,527.4
2018-08-11T09:40:14.829Z,527.5
2018-08-11T09:41:17.285Z,527.4
2018-08-11T09:42:19.737Z,527.5
2018-08-11T09:43:21.401Z,527.5
2018-08-11T09:44:23.841Z,527.6
2018-08-11T09:45:25.720Z,527.5
2018-08-11T09:46:27.896Z,527.8
2018-08-11T09:47:30.076Z,527.6
2018-08-11T09:48:32.533Z,527.1
2018-08-11T09:49:34.462Z,527.2
2018-08-11T09:50:36.367Z,527.8
2018-08-11T09:51:38.530Z,527.6
2018-08-11T09:52:40.981Z,528
2018-08-11T09:53:43.414Z,528
2018-08-11T09:54:45.875Z,528.4
2018-08-11T09:55:48.059Z,528.6
2018-08-11T09:56:50.237Z,528.7
2018-08-11T09:57:52.176Z,528.2
2018-08-11T09:58:54.724Z,527.8
2018-08-11T09:59:56.606Z,528.1
2018-08-11T10:00:59.083Z,528.2
2018-08-11T10:02:01.252Z,528.3
2018-08-11T10:03:03.438Z,528.2
2018-08-11T10:04:05.598Z,528.3
2018-08-11T10:05:08.070Z,528.4
2018-08-11T10:06:10.023Z,528.6
2018-08-11T10:07:12.181Z,528.7
2018-08-11T10:08:14.354Z,528.6
2018-08-11T10:09:16.530Z,528.5
2018-08-11T10:10:19.001Z,528.6
2018-08-11T10:11:21.457Z,528.8
2018-08-11T10:12:23.644Z,528.5
2018-08-11T10:13:25.545Z,528.4
2018-08-11T10:14:27.986Z,529
2018-08-11T10:15:29.897Z,528.4
2018-08-11T10:16:32.082Z,529
2018-08-11T10:17:34.260Z,528.7
2018-08-11T10:18:37.200Z,528.9
2018-08-11T10:19:39.726Z,529.1
2018-08-11T10:20:42.171Z,529.3
2018-08-11T10:21:44.354Z,529.2
2018-08-11T10:22:46.526Z,529.2
2018-08-11T10:23:48.965Z,529.4
2018-08-11T10:24:51.153Z,529.2
2018-08-11T10:25:53.316Z,529.5
2018-08-11T10:26:55.757Z,529.6
2018-08-11T10:27:58.211Z,529.7
2018-08-11T10:29:00.394Z,529.8
2018-08-11T10:30:02.267Z,529.9
2018-08-11T10:31:04.716Z,529.9
2018-08-11T10:32:06.903Z,529.7
2018-08-11T10:33:09.357Z,529.6
2018-08-11T10:34:11.805Z,529.4
2018-08-11T10:35:14.248Z,529.5
2018-08-11T10:36:16.685Z,529.7
2018-08-11T10:37:19.147Z,530.1
2018-08-11T10:38:21.599Z,530.5
2018-08-11T10:39:24.071Z,530.2
2018-08-11T10:40:26.529Z,530.9
2018-08-11T10:41:29.001Z,530.6
2018-08-11T10:42:30.911Z,530.2
2018-08-11T10:43:33.096Z,530.6
2018-08-11T10:44:34.980Z,530.3
2018-08-11T10:45:37.153Z,530.2
2018-08-11T10:46:39.341Z,530.2
2018-08-11T10:47:41.783Z,530.5
2018-08-11T10:48:44.240Z,530.2
2018-08-11T10:49:46.697Z,530.6
2018-08-11T10:50:49.150Z,530.8
2018-08-11T10:51:51.303Z,530.6
2018-08-11T10:52:53.744Z,530.8
2018-08-11T10:53:55.626Z,531
2018-08-11T10:54:57.821Z,530.9
2018-08-11T10:55:59.903Z,531.3
2018-08-11T10:57:02.111Z,531.5
2018-08-11T10:58:04.286Z,531.2
2018-08-11T10:59:06.765Z,531.1
2018-08-11T11:00:09.209Z,531.1
2018-08-11T11:01:11.902Z,531.7
2018-08-11T11:02:13.816Z,531.2
2018-08-11T11:03:16.270Z,530.9
2018-08-11T11:04:18.721Z,531
2018-08-11T11:05:20.886Z,531.2
2018-08-11T11:06:22.787Z,531.1
2018-08-11T11:07:24.784Z,531.2
2018-08-11T11:08:27.759Z,531.2
2018-08-11T11:09:29.933Z,531.2
2018-08-11T11:10:32.388Z,531.7
2018-08-11T11:11:34.559Z,531.7
2018-08-11T11:12:36.732Z,532.1
2018-08-11T11:13:38.869Z,532
2018-08-11T11:14:40.805Z,532.7
2018-08-11T11:15:42.955Z,532.6
2018-08-11T11:16:44.867Z,532.6
2018-08-11T11:17:47.302Z,532.4
2018-08-11T11:18:49.494Z,532.9
2018-08-11T11:19:51.939Z,532.8
2018-08-11T11:20:53.978Z,533
2018-08-11T11:21:56.214Z,533.2
2018-08-11T11:22:58.657Z,533.7
2018-08-11T11:24:00.844Z,533.3
2018-08-11T11:25:03.299Z,533.8
2018-08-11T11:26:05.481Z,533.7
2018-08-11T11:27:07.926Z,533.4
2018-08-11T11:28:10.121Z,533.2
2018-08-11T11:29:12.584Z,533.5
2018-08-11T11:30:15.017Z,533.2
2018-08-11T11:31:17.201Z,533.1
2018-08-11T11:32:19.646Z,533.2
2018-08-11T11:33:22.091Z,533.7
2018-08-11T11:34:23.704Z,533.4
2018-08-11T11:35:26.162Z,533.5
2018-08-11T11:36:28.116Z,533.4
2018-08-11T11:37:30.572Z,533.4
2018-08-11T11:38:32.484Z,533.5
2018-08-11T11:39:34.667Z,533.9
2018-08-11T11:40:36.846Z,533.9
2018-08-11T11:41:39.296Z,533.1
2018-08-11T11:42:41.258Z,533
2018-08-11T11:43:43.191Z,533.1
2018-08-11T11:44:45.643Z,533.6
2018-08-11T11:45:48.093Z,533.9
2018-08-11T11:46:50.267Z,533.3
2018-08-11T11:47:52.159Z,534
2018-08-11T11:48:54.612Z,534
2018-08-11T11:49:56.787Z,533.9
2018-08-11T11:50:58.956Z,533.8
2018-08-11T11:52:00.874Z,534
2018-08-11T11:53:03.319Z,534.3
2018-08-11T11:54:05.497Z,534.5
2018-08-11T11:55:07.700Z,534.8
2018-08-11T11:56:09.886Z,534.7
2018-08-11T11:57:12.341Z,535
2018-08-11T11:58:14.780Z,534.7
2018-08-11T11:59:16.966Z,534.7
2018-08-11T12:00:19.130Z,534.3
2018-08-11T12:01:21.010Z,534.5
2018-08-11T12:02:23.467Z,534.7
2018-08-11T12:03:25.651Z,534.4
2018-08-11T12:04:28.120Z,534.4
2018-08-11T12:05:30.018Z,534.6
2018-08-11T12:06:32.200Z,534.3
2018-08-11T12:07:34.643Z,534
2018-08-11T12:08:36.258Z,533.9
2018-08-11T12:09:38.442Z,533.9
2018-08-11T12:10:40.359Z,533.6
2018-08-11T12:11:42.540Z,533.5
2018-08-11T12:12:44.697Z,533.4
2018-08-11T12:13:46.877Z,534
2018-08-11T12:14:49.068Z,533.8
2018-08-11T12:15:50.962Z,534.4
2018-08-11T12:16:53.128Z,534.6
2018-08-11T12:17:55.587Z,534.9
2018-08-11T12:18:58.056Z,534.7
2018-08-11T12:19:59.927Z,534.9
2018-08-11T12:21:01.845Z,535
2018-08-11T12:22:04.300Z,535.5
2018-08-11T12:23:06.214Z,535.9
2018-08-11T12:24:08.653Z,535.5
2018-08-11T12:25:10.548Z,536.4
2018-08-11T12:26:12.994Z,536.4
2018-08-11T12:27:15.167Z,536.6
2018-08-11T12:28:17.371Z,536
2018-08-11T12:29:19.280Z,536.3
2018-08-11T12:30:21.765Z,535.9
2018-08-11T12:31:24.205Z,536.3
2018-08-11T12:32:26.117Z,536.1
2018-08-11T12:33:28.570Z,536.3
2018-08-11T12:34:31.036Z,536.3
2018-08-11T12:35:33.486Z,536.3
2018-08-11T12:36:35.940Z,536.5
2018-08-11T12:37:37.823Z,537.1
2018-08-11T12:38:40.273Z,537.3
2018-08-11T12:39:42.712Z,536.9
2018-08-11T12:40:44.896Z,537.3
2018-08-11T12:41:46.806Z,537.4
2018-08-11T12:42:49.245Z,537.4
2018-08-11T12:43:51.129Z,537.4
2018-08-11T12:44:53.301Z,537.6
2018-08-11T12:45:55.483Z,537.9
2018-08-11T12:46:57.916Z,537.7
2018-08-11T12:48:00.112Z,537.9
2018-08-11T12:49:02.566Z,537.6
2018-08-11T12:50:04.748Z,537.7
2018-08-11T12:51:07.196Z,537.7
2018-08-11T12:52:09.431Z,537.5
2018-08-11T12:53:11.037Z,537.8
2018-08-11T12:54:13.216Z,537.6
2018-08-11T12:55:15.369Z,537.5
2018-08-11T12:56:17.265Z,537.9
2018-08-11T12:57:19.454Z,537.7
2018-08-11T12:58:21.349Z,538.4
2018-08-11T12:59:23.790Z,538.2
2018-08-11T13:00:26.239Z,538.9
2018-08-11T13:01:28.581Z,538.7
2018-08-11T13:02:30.713Z,538.7
2018-08-11T13:03:32.908Z,538.9
2018-08-11T13:04:35.370Z,539.1
2018-08-11T13:05:37.826Z,539.1
2018-08-11T13:06:40.280Z,539
2018-08-11T13:07:42.748Z,538.9
2018-08-11T13:08:45.212Z,539.3
2018-08-11T13:09:47.388Z,539.7
2018-08-11T13:10:49.287Z,539.6
2018-08-11T13:11:51.181Z,539.3
2018-08-11T13:12:53.623Z,539.8
2018-08-11T13:13:55.786Z,540.2
2018-08-11T13:14:57.954Z,540
2018-08-11T13:16:00.413Z,539.8
2018-08-11T13:17:02.603Z,540.3
2018-08-11T13:18:04.781Z,540.2
2018-08-11T13:19:06.713Z,540.8
2018-08-11T13:20:08.882Z,540.7
2018-08-11T13:21:10.795Z,540.3
2018-08-11T13:22:12.958Z,540.6
2018-08-11T13:23:15.416Z,540.8
2018-08-11T13:24:17.363Z,540.8
2018-08-11T13:25:19.549Z,540.6
2018-08-11T13:26:21.730Z,540.3